createdAt,value
2022-07-29T00:01:44.711Z,2.80
2022-07-29T00:04:11.741Z,2.88
2022-07-29T00:06:38.324Z,2.38
2022-07-29T00:09:04.830Z,2.80
2022-07-29T00:11:31.315Z,2.90
2022-07-29T00:13:57.901Z,2.97
2022-07-29T00:16:24.308Z,2.85
2022-07-29T00:18:50.676Z,2.65
2022-07-29T00:21:17.083Z,3.00
2022-07-29T00:23:43.465Z,2.63
2022-07-29T00:26:09.842Z,2.95
2022-07-29T00:28:36.302Z,3.35
2022-07-29T00:31:02.796Z,3.30
2022-07-29T00:33:29.620Z,3.17
2022-07-29T00:35:55.985Z,3.08
2022-07-29T00:38:23.777Z,3.55
2022-07-29T00:40:50.297Z,2.92
2022-07-29T00:43:17.945Z,3.13
2022-07-29T00:45:44.997Z,3.05
2022-07-29T00:48:11.418Z,3.45
2022-07-29T00:50:39.067Z,3.33
2022-07-29T00:53:08.151Z,3.10
2022-07-29T00:55:35.374Z,3.15
2022-07-29T00:58:02.000Z,3.33
2022-07-29T01:00:29.590Z,3.17
2022-07-29T01:02:56.154Z,2.92
2022-07-29T01:05:25.363Z,3.65
2022-07-29T01:08:12.897Z,3.20
2022-07-29T01:10:41.802Z,3.22
2022-07-29T01:13:10.128Z,3.33
2022-07-29T01:15:48.989Z,3.22
2022-07-29T01:18:29.295Z,3.35
2022-07-29T01:21:08.837Z,3.10
2022-07-29T01:23:47.973Z,2.92
2022-07-29T01:26:28.659Z,3.22
2022-07-29T01:29:06.122Z,2.75
2022-07-29T01:31:58.541Z,2.95
2022-07-29T01:34:40.366Z,3.42
2022-07-29T01:37:09.737Z,2.72
2022-07-29T01:39:38.144Z,2.88
2022-07-29T01:42:04.761Z,2.75
2022-07-29T01:44:40.704Z,3.42
2022-07-29T01:47:15.548Z,2.58
2022-07-29T01:49:47.613Z,3.17
2022-07-29T01:52:22.788Z,2.83
2022-07-29T01:54:55.142Z,2.75
2022-07-29T01:57:28.283Z,2.70
2022-07-29T01:59:57.125Z,3.28
2022-07-29T02:02:25.198Z,3.45
2022-07-29T02:04:53.095Z,3.55
2022-07-29T02:07:22.844Z,3.42
2022-07-29T02:09:51.076Z,2.78
2022-07-29T02:12:19.200Z,3.00
2022-07-29T02:14:48.698Z,2.67
2022-07-29T02:17:38.747Z,2.78
2022-07-29T02:20:07.631Z,3.20
2022-07-29T02:22:37.979Z,3.08
2022-07-29T02:25:06.017Z,2.50
2022-07-29T02:27:42.070Z,3.13
2022-07-29T02:30:10.899Z,3.67
2022-07-29T02:32:40.268Z,3.25
2022-07-29T02:35:09.923Z,3.25
2022-07-29T02:37:37.667Z,2.78
2022-07-29T02:40:07.021Z,3.05
2022-07-29T02:42:36.863Z,3.20
2022-07-29T02:45:03.877Z,2.95
2022-07-29T02:47:47.727Z,3.05
2022-07-29T02:50:21.000Z,3.03
2022-07-29T02:52:58.393Z,3.13
2022-07-29T02:55:35.619Z,3.17
2022-07-29T02:58:11.921Z,3.10
2022-07-29T03:00:40.080Z,3.05
2022-07-29T03:03:12.226Z,3.45
2022-07-29T03:05:40.348Z,2.90
2022-07-29T03:08:09.937Z,3.15
2022-07-29T03:10:38.742Z,3.50
2022-07-29T03:13:06.264Z,3.28
2022-07-29T03:15:33.191Z,3.40
2022-07-29T03:18:00.699Z,3.00
2022-07-29T03:20:27.370Z,3.30
2022-07-29T03:22:53.771Z,3.05
2022-07-29T03:25:20.951Z,2.70
2022-07-29T03:27:48.608Z,3.70
2022-07-29T03:30:18.289Z,3.47
2022-07-29T03:32:48.525Z,3.35
2022-07-29T03:35:17.375Z,3.38
2022-07-29T03:37:44.734Z,3.63
2022-07-29T03:40:15.111Z,3.47
2022-07-29T03:42:44.506Z,3.50
2022-07-29T03:45:16.840Z,3.75
2022-07-29T03:47:55.911Z,3.42
2022-07-29T03:50:26.676Z,3.45
2022-07-29T03:52:53.479Z,3.50
2022-07-29T03:55:20.143Z,3.65
2022-07-29T03:57:48.215Z,3.63
2022-07-29T04:00:16.319Z,3.70
2022-07-29T04:02:47.805Z,3.47
2022-07-29T04:05:15.002Z,4.72
2022-07-29T04:07:45.351Z,4.32
2022-07-29T04:10:11.887Z,3.95
2022-07-29T04:12:38.329Z,4.00
2022-07-29T04:15:05.790Z,4.20
2022-07-29T04:17:32.260Z,3.92
2022-07-29T04:19:58.729Z,4.32
2022-07-29T04:22:25.202Z,3.83
2022-07-29T04:24:53.876Z,3.40
2022-07-29T04:27:20.232Z,3.80
2022-07-29T04:29:56.354Z,4.05
2022-07-29T04:32:24.960Z,3.63
2022-07-29T04:34:51.599Z,3.97
2022-07-29T04:37:17.975Z,4.20
2022-07-29T04:39:44.339Z,3.67
2022-07-29T04:42:10.831Z,3.70
2022-07-29T04:44:39.746Z,4.22
2022-07-29T04:47:09.669Z,4.28
2022-07-29T04:49:38.920Z,4.22
2022-07-29T04:52:06.096Z,3.65
2022-07-29T04:54:32.488Z,4.07
2022-07-29T04:56:58.861Z,4.10
2022-07-29T04:59:26.177Z,4.03
2022-07-29T05:01:52.648Z,4.10
2022-07-29T05:04:19.772Z,4.03
2022-07-29T05:06:46.633Z,3.50
2022-07-29T05:09:13.001Z,3.70
2022-07-29T05:11:39.379Z,4.03
2022-07-29T05:14:05.873Z,4.13
2022-07-29T05:16:32.430Z,3.70
2022-07-29T05:18:58.817Z,4.20
2022-07-29T05:21:25.185Z,4.05
2022-07-29T05:23:51.796Z,3.70
2022-07-29T05:26:18.220Z,3.88
2022-07-29T05:28:44.601Z,3.63
2022-07-29T05:31:11.013Z,3.65
2022-07-29T05:33:37.744Z,3.30
2022-07-29T05:36:07.489Z,3.53
2022-07-29T05:38:34.700Z,3.63
2022-07-29T05:41:01.275Z,3.50
2022-07-29T05:43:30.792Z,3.55
2022-07-29T05:45:57.553Z,3.35
2022-07-29T05:48:24.144Z,3.40
2022-07-29T05:50:50.752Z,3.78
2022-07-29T05:53:19.935Z,3.17
2022-07-29T05:55:47.899Z,3.28
2022-07-29T05:58:14.261Z,3.58
2022-07-29T06:00:40.908Z,3.72
2022-07-29T06:03:07.387Z,4.30
2022-07-29T06:05:33.802Z,3.63
2022-07-29T06:08:00.147Z,3.60
2022-07-29T06:10:26.865Z,4.03
2022-07-29T06:12:53.770Z,3.53
2022-07-29T06:15:20.352Z,4.05
2022-07-29T06:17:58.977Z,3.40
2022-07-29T06:20:30.528Z,3.85
2022-07-29T06:22:57.639Z,3.38
2022-07-29T06:25:24.164Z,4.20
2022-07-29T06:27:50.587Z,3.72
2022-07-29T06:30:17.050Z,3.58
2022-07-29T06:32:43.598Z,3.63
2022-07-29T06:35:37.524Z,3.80
2022-07-29T06:37:59.523Z,3.65
2022-07-29T06:40:45.640Z,3.70
2022-07-29T06:43:12.229Z,3.65
2022-07-29T06:45:42.037Z,3.85
2022-07-29T06:48:08.985Z,3.40
2022-07-29T06:50:35.497Z,4.90
2022-07-29T06:53:02.002Z,4.07
2022-07-29T06:55:28.363Z,4.35
2022-07-29T06:57:54.733Z,4.53
2022-07-29T07:00:21.409Z,3.65
2022-07-29T07:02:47.890Z,4.53
2022-07-29T07:05:14.328Z,4.00
2022-07-29T07:07:41.017Z,3.95
2022-07-29T07:10:07.835Z,3.50
2022-07-29T07:12:34.550Z,3.67
2022-07-29T07:15:00.947Z,3.78
2022-07-29T07:17:27.306Z,3.45
2022-07-29T07:19:53.686Z,5.13
2022-07-29T07:22:20.077Z,3.65
2022-07-29T07:24:46.425Z,3.70
2022-07-29T07:27:12.840Z,3.90
2022-07-29T07:29:41.973Z,4.30
2022-07-29T07:32:11.048Z,3.97
2022-07-29T07:34:38.709Z,4.05
2022-07-29T07:37:05.809Z,4.80
2022-07-29T07:39:32.220Z,4.03
2022-07-29T07:41:58.770Z,3.47
2022-07-29T07:44:25.121Z,4.25
2022-07-29T07:46:51.530Z,4.13
2022-07-29T07:49:18.545Z,3.80
2022-07-29T07:51:50.505Z,4.00
2022-07-29T07:54:18.470Z,4.07
2022-07-29T07:56:49.755Z,3.75
2022-07-29T07:59:18.241Z,4.68
2022-07-29T08:01:48.112Z,4.18
2022-07-29T08:04:27.126Z,4.05
2022-07-29T08:06:57.613Z,3.95
2022-07-29T08:09:30.304Z,3.95
2022-07-29T08:11:59.164Z,4.50
2022-07-29T08:16:52.478Z,5.05
2022-07-29T08:19:19.040Z,4.80
2022-07-29T08:21:45.418Z,4.78
2022-07-29T08:24:30.578Z,4.50
2022-07-29T08:26:56.952Z,4.85
2022-07-29T08:29:23.359Z,5.20
2022-07-29T08:31:49.872Z,5.10
2022-07-29T08:34:16.472Z,4.45
2022-07-29T08:36:42.914Z,4.60
2022-07-29T08:39:09.394Z,4.00
2022-07-29T08:41:36.365Z,4.68
2022-07-29T08:44:02.772Z,4.20
2022-07-29T08:46:29.213Z,4.65
2022-07-29T08:48:56.594Z,3.90
2022-07-29T08:51:23.071Z,3.72
2022-07-29T08:53:51.432Z,4.05
2022-07-29T08:58:50.631Z,3.72
2022-07-29T09:01:23.838Z,3.80
2022-07-29T09:04:06.909Z,3.85
2022-07-29T09:06:37.489Z,3.92
2022-07-29T09:09:04.954Z,3.80
2022-07-29T09:11:33.106Z,3.95
2022-07-29T09:13:59.561Z,4.68
2022-07-29T09:16:50.826Z,3.80
2022-07-29T09:19:25.883Z,3.92
2022-07-29T09:21:59.044Z,3.80
2022-07-29T09:24:27.884Z,5.00
2022-07-29T09:26:54.663Z,4.72
2022-07-29T09:29:24.438Z,3.50
2022-07-29T09:31:52.876Z,4.70
2022-07-29T09:34:29.062Z,3.95
2022-07-29T09:36:56.781Z,3.90
2022-07-29T09:39:32.790Z,4.22
2022-07-29T09:42:02.406Z,3.92
2022-07-29T09:44:42.287Z,4.18
2022-07-29T09:47:09.291Z,4.10
2022-07-29T09:49:50.498Z,4.60
2022-07-29T09:54:43.237Z,4.32
2022-07-29T09:57:26.176Z,4.03
2022-07-29T10:00:11.121Z,5.03
2022-07-29T10:02:38.860Z,3.53
2022-07-29T10:05:16.506Z,3.95
2022-07-29T10:07:57.713Z,4.57
2022-07-29T10:10:29.393Z,4.07
2022-07-29T10:13:11.028Z,4.28
2022-07-29T10:15:44.984Z,4.72
2022-07-29T10:18:13.251Z,4.22
2022-07-29T10:23:06.723Z,4.65
2022-07-29T10:25:33.301Z,4.03
2022-07-29T10:28:00.009Z,4.03
2022-07-29T10:30:27.479Z,4.40
2022-07-29T10:33:05.949Z,4.22
2022-07-29T10:36:15.748Z,4.95
2022-07-29T10:38:46.145Z,4.07
2022-07-29T10:41:43.922Z,5.00
2022-07-29T10:44:23.301Z,4.25
2022-07-29T10:46:51.722Z,4.82
2022-07-29T10:49:27.769Z,4.82
2022-07-29T10:52:08.093Z,4.85
2022-07-29T10:54:37.713Z,5.20
2022-07-29T10:57:54.655Z,4.45
2022-07-29T11:00:17.030Z,4.20
2022-07-29T11:02:45.753Z,5.10
2022-07-29T11:05:20.579Z,5.13
2022-07-29T11:11:22.032Z,4.68
2022-07-29T11:13:52.396Z,4.45
2022-07-29T11:16:25.161Z,4.78
2022-07-29T11:19:14.100Z,4.43
2022-07-29T11:21:55.546Z,5.05
2022-07-29T11:24:31.818Z,4.47
2022-07-29T11:27:13.372Z,4.40
2022-07-29T11:30:04.569Z,5.15
2022-07-29T11:32:39.883Z,4.70
2022-07-29T11:35:37.919Z,4.25
2022-07-29T11:38:32.084Z,5.20
2022-07-29T11:41:23.765Z,4.95
2022-07-29T11:43:58.560Z,3.67
2022-07-29T11:46:44.387Z,4.70
2022-07-29T11:49:11.389Z,3.90
2022-07-29T11:51:57.871Z,5.53
2022-07-29T11:54:32.945Z,4.57
2022-07-29T11:57:07.894Z,4.88
2022-07-29T11:59:45.133Z,5.25
2022-07-29T12:02:37.277Z,4.88
2022-07-29T12:05:00.421Z,4.18
2022-07-29T12:07:35.636Z,4.30
2022-07-29T12:10:03.193Z,4.53
2022-07-29T12:12:29.716Z,5.57
2022-07-29T12:14:56.274Z,4.65
2022-07-29T12:17:35.880Z,4.63
2022-07-29T12:20:05.347Z,4.20
2022-07-29T12:22:33.085Z,4.60
2022-07-29T12:25:32.431Z,4.55
2022-07-29T12:28:01.819Z,4.53
2022-07-29T12:30:49.486Z,4.38
2022-07-29T12:33:27.195Z,3.65
2022-07-29T12:36:09.488Z,3.97
2022-07-29T12:38:41.408Z,3.13
2022-07-29T12:41:08.043Z,2.90
2022-07-29T12:43:34.507Z,3.63
2022-07-29T12:46:16.078Z,3.17
2022-07-29T12:48:44.055Z,3.13
2022-07-29T12:51:13.194Z,3.65
2022-07-29T12:53:40.051Z,3.50
2022-07-29T12:56:26.658Z,3.55
2022-07-29T12:58:53.817Z,3.33
2022-07-29T13:01:21.837Z,3.55
2022-07-29T13:03:59.776Z,3.75
2022-07-29T13:06:39.713Z,3.33
2022-07-29T13:09:15.040Z,3.72
2022-07-29T13:11:50.222Z,3.58
2022-07-29T13:14:34.379Z,3.33
2022-07-29T13:17:06.054Z,3.50
2022-07-29T13:19:47.414Z,3.10
2022-07-29T13:24:53.631Z,3.70
2022-07-29T13:27:23.581Z,2.70
2022-07-29T13:29:52.184Z,3.22
2022-07-29T13:32:19.783Z,2.90
2022-07-29T13:34:55.580Z,3.10
2022-07-29T13:37:21.986Z,3.30
2022-07-29T13:39:51.380Z,3.33
2022-07-29T13:42:20.000Z,2.95
2022-07-29T13:44:46.436Z,3.13
2022-07-29T13:47:13.618Z,3.25
2022-07-29T13:49:40.023Z,3.05
2022-07-29T13:52:08.136Z,3.67
2022-07-29T13:54:42.161Z,3.22
2022-07-29T13:57:09.504Z,3.03
2022-07-29T13:59:36.064Z,3.03
2022-07-29T14:02:02.582Z,3.28
2022-07-29T14:04:29.013Z,3.30
2022-07-29T14:06:55.843Z,3.53
2022-07-29T14:09:22.195Z,3.67
2022-07-29T14:11:50.548Z,3.40
2022-07-29T14:16:47.634Z,3.65
2022-07-29T14:19:17.030Z,4.20
2022-07-29T14:21:43.455Z,3.40
2022-07-29T14:24:17.688Z,3.63
2022-07-29T14:26:48.581Z,3.13
2022-07-29T14:29:15.506Z,3.38
2022-07-29T14:31:41.988Z,3.53
2022-07-29T14:34:08.444Z,2.97
2022-07-29T14:36:35.706Z,3.85
2022-07-29T14:39:02.172Z,3.10
2022-07-29T14:41:29.295Z,3.58
2022-07-29T14:43:55.809Z,3.05
2022-07-29T14:46:22.210Z,4.18
2022-07-29T14:48:48.754Z,3.35
2022-07-29T14:51:15.213Z,2.72
2022-07-29T14:53:41.585Z,2.83
2022-07-29T14:56:34.995Z,3.00
2022-07-29T14:58:54.279Z,2.60
2022-07-29T15:01:20.738Z,2.65
2022-07-29T15:03:47.197Z,2.42
2022-07-29T15:06:13.790Z,2.67
2022-07-29T15:08:40.228Z,2.58
2022-07-29T15:11:06.571Z,2.85
2022-07-29T15:13:34.267Z,2.50
2022-07-29T15:16:00.675Z,2.92
2022-07-29T15:18:27.175Z,2.58
2022-07-29T15:20:53.591Z,2.85
2022-07-29T15:23:20.635Z,2.83
2022-07-29T15:25:47.047Z,2.50
2022-07-29T15:28:13.431Z,2.83
2022-07-29T15:30:42.784Z,2.53
2022-07-29T15:33:10.167Z,2.63
2022-07-29T15:35:40.579Z,2.90
2022-07-29T15:38:07.799Z,2.50
2022-07-29T15:40:34.258Z,2.58
2022-07-29T15:43:06.338Z,2.67
2022-07-29T15:45:40.166Z,2.55
2022-07-29T15:48:10.020Z,2.33
2022-07-29T15:50:41.290Z,2.42
2022-07-29T15:53:07.677Z,2.15
2022-07-29T15:55:34.131Z,2.50
2022-07-29T15:58:00.911Z,2.45
2022-07-29T16:00:28.030Z,2.67
2022-07-29T16:02:54.429Z,2.20
2022-07-29T16:05:20.891Z,2.30
2022-07-29T16:07:47.274Z,2.17
2022-07-29T16:10:13.710Z,2.25
2022-07-29T16:12:40.132Z,2.30
2022-07-29T16:15:09.909Z,1.98
2022-07-29T16:17:38.007Z,2.22
2022-07-29T16:20:05.795Z,2.80
2022-07-29T16:22:32.182Z,2.90
2022-07-29T16:24:58.595Z,3.00
2022-07-29T16:27:31.476Z,2.75
2022-07-29T16:30:04.583Z,3.03
2022-07-29T16:32:31.088Z,2.78
2022-07-29T16:34:58.459Z,2.72
2022-07-29T16:37:24.808Z,3.63
2022-07-29T16:39:55.198Z,3.50
2022-07-29T16:42:44.415Z,2.90
2022-07-29T16:45:08.605Z,2.90
2022-07-29T16:47:36.134Z,3.05
2022-07-29T16:50:02.575Z,3.08
2022-07-29T16:52:29.070Z,2.53
2022-07-29T16:54:55.427Z,2.50
2022-07-29T16:57:21.902Z,2.53
2022-07-29T16:59:50.822Z,2.60
2022-07-29T17:02:17.292Z,2.70
2022-07-29T17:04:43.725Z,2.63
2022-07-29T17:07:10.262Z,2.88
2022-07-29T17:09:36.704Z,2.85
2022-07-29T17:12:03.185Z,2.47
2022-07-29T17:14:31.366Z,2.53
2022-07-29T17:17:03.023Z,3.10
2022-07-29T17:19:32.506Z,3.35
2022-07-29T17:22:08.945Z,3.63
2022-07-29T17:24:38.373Z,4.30
2022-07-29T17:27:05.643Z,3.80
2022-07-29T17:29:31.994Z,4.43
2022-07-29T17:31:59.422Z,3.97
2022-07-29T17:34:25.901Z,3.92
2022-07-29T17:36:52.392Z,3.70
2022-07-29T17:39:18.883Z,4.07
2022-07-29T17:41:46.914Z,4.07
2022-07-29T17:44:13.567Z,4.35
2022-07-29T17:46:40.338Z,4.07
2022-07-29T17:49:07.098Z,4.05
2022-07-29T17:51:33.590Z,3.92
2022-07-29T17:54:00.086Z,4.03
2022-07-29T17:56:26.434Z,4.13
2022-07-29T17:58:52.931Z,4.05
2022-07-29T18:01:19.444Z,4.10
2022-07-29T18:03:45.873Z,3.97
2022-07-29T18:06:12.756Z,4.40
2022-07-29T18:08:39.745Z,4.65
2022-07-29T18:11:06.257Z,4.28
2022-07-29T18:13:32.743Z,4.70
2022-07-29T18:16:00.637Z,4.65
2022-07-29T18:18:27.621Z,4.43
2022-07-29T18:20:54.167Z,4.82
2022-07-29T18:23:21.139Z,4.97
2022-07-29T18:25:47.592Z,5.05
2022-07-29T18:28:14.142Z,4.75
2022-07-29T18:30:41.391Z,5.28
2022-07-29T18:33:21.600Z,5.18
2022-07-29T18:35:49.382Z,5.22
2022-07-29T18:38:16.517Z,5.63
2022-07-29T18:40:44.403Z,5.65
2022-07-29T18:43:11.862Z,5.25
2022-07-29T18:45:39.678Z,5.32
2022-07-29T18:48:08.391Z,5.25
2022-07-29T18:50:39.510Z,5.63
2022-07-29T18:53:06.035Z,5.10
2022-07-29T18:55:32.504Z,5.47
2022-07-29T18:57:58.901Z,5.43
2022-07-29T19:00:26.316Z,5.15
2022-07-29T19:02:53.162Z,4.85
2022-07-29T19:05:19.955Z,4.90
2022-07-29T19:07:46.342Z,5.05
2022-07-29T19:10:13.418Z,5.40
2022-07-29T19:12:39.842Z,5.15
2022-07-29T19:15:07.490Z,4.85
2022-07-29T19:17:33.833Z,4.88
2022-07-29T19:20:00.273Z,5.20
2022-07-29T19:22:26.731Z,5.20
2022-07-29T19:24:53.260Z,5.10
2022-07-29T19:27:19.939Z,4.13
2022-07-29T19:29:46.331Z,4.20
2022-07-29T19:32:13.550Z,5.10
2022-07-29T19:35:10.680Z,4.55
2022-07-29T19:37:37.282Z,4.78
2022-07-29T19:40:04.661Z,5.03
2022-07-29T19:42:31.125Z,4.40
2022-07-29T19:44:57.551Z,5.72
2022-07-29T19:47:24.023Z,4.72
2022-07-29T19:49:50.463Z,4.82
2022-07-29T19:52:17.015Z,5.30
2022-07-29T19:54:43.431Z,4.72
2022-07-29T19:57:09.872Z,4.70
2022-07-29T19:59:36.256Z,4.65
2022-07-29T20:02:02.770Z,4.57
2022-07-29T20:04:29.415Z,4.70
2022-07-29T20:07:01.017Z,5.28
2022-07-29T20:09:28.223Z,4.93
2022-07-29T20:11:54.795Z,4.53
2022-07-29T20:14:21.483Z,4.85
2022-07-29T20:16:48.046Z,4.75
2022-07-29T20:19:14.587Z,4.57
2022-07-29T20:21:41.013Z,4.80
2022-07-29T20:24:08.091Z,4.57
2022-07-29T20:26:34.479Z,4.75
2022-07-29T20:29:01.480Z,4.80
2022-07-29T20:31:27.959Z,5.10
2022-07-29T20:33:54.380Z,4.97
2022-07-29T20:36:20.800Z,5.03
2022-07-29T20:38:47.172Z,4.88
2022-07-29T20:41:14.193Z,4.82
2022-07-29T20:43:40.849Z,4.85
2022-07-29T20:46:07.416Z,4.72
2022-07-29T20:48:33.799Z,5.60
2022-07-29T20:51:00.188Z,5.10
2022-07-29T20:53:26.699Z,4.47
2022-07-29T20:55:53.334Z,4.68
2022-07-29T20:58:19.821Z,5.20
2022-07-29T21:00:46.852Z,5.20
2022-07-29T21:03:13.551Z,5.50
2022-07-29T21:05:43.825Z,5.10
2022-07-29T21:08:11.691Z,5.35
2022-07-29T21:10:38.100Z,5.35
2022-07-29T21:13:04.843Z,4.72
2022-07-29T21:15:32.409Z,5.32
2022-07-29T21:18:05.964Z,5.07
2022-07-29T21:20:32.345Z,4.95
2022-07-29T21:22:58.717Z,5.00
2022-07-29T21:25:26.981Z,4.63
2022-07-29T21:28:12.005Z,4.82
2022-07-29T21:30:38.576Z,5.63
2022-07-29T21:33:05.185Z,4.90
2022-07-29T21:36:01.780Z,4.75
2022-07-29T21:38:18.841Z,4.95
2022-07-29T21:40:46.633Z,5.40
2022-07-29T21:43:13.593Z,5.13
2022-07-29T21:45:40.229Z,5.38
2022-07-29T21:48:07.455Z,5.07
2022-07-29T21:50:35.136Z,5.40
2022-07-29T21:53:01.974Z,4.97
2022-07-29T21:55:31.118Z,5.30
2022-07-29T21:57:59.030Z,5.65
2022-07-29T22:00:25.733Z,4.70
2022-07-29T22:02:53.385Z,5.40
2022-07-29T22:05:19.845Z,5.95
2022-07-29T22:07:55.585Z,5.82
2022-07-29T22:10:24.949Z,5.15
2022-07-29T22:12:52.599Z,6.00
2022-07-29T22:15:19.731Z,5.40
2022-07-29T22:17:46.180Z,5.15
2022-07-29T22:20:12.876Z,5.45
2022-07-29T22:22:39.600Z,5.15
2022-07-29T22:25:07.166Z,5.22
2022-07-29T22:27:33.712Z,5.15
2022-07-29T22:30:00.222Z,4.82
2022-07-29T22:32:26.904Z,5.18
2022-07-29T22:34:53.258Z,5.20
2022-07-29T22:37:19.664Z,5.15
2022-07-29T22:39:46.368Z,5.30
2022-07-29T22:42:12.769Z,5.45
2022-07-29T22:44:39.186Z,4.90
2022-07-29T22:47:05.722Z,5.43
2022-07-29T22:49:32.479Z,5.78
2022-07-29T22:52:00.137Z,5.15
2022-07-29T22:54:26.915Z,5.25
2022-07-29T22:56:53.464Z,5.05
2022-07-29T22:59:19.840Z,5.80
2022-07-29T23:01:46.250Z,5.05
2022-07-29T23:04:12.720Z,6.10
2022-07-29T23:06:39.270Z,5.28
2022-07-29T23:09:05.739Z,4.90
2022-07-29T23:11:32.127Z,5.35
2022-07-29T23:13:58.495Z,4.93
2022-07-29T23:16:26.310Z,5.03
2022-07-29T23:18:53.742Z,5.03
2022-07-29T23:21:20.825Z,5.15
2022-07-29T23:23:48.931Z,5.63
2022-07-29T23:26:16.763Z,9.85
2022-07-29T23:28:44.706Z,8.65
2022-07-29T23:31:11.510Z,9.60
2022-07-29T23:33:38.055Z,11.35
2022-07-29T23:36:04.446Z,11.23
2022-07-29T23:38:30.848Z,11.82
2022-07-29T23:40:58.518Z,12.85
2022-07-29T23:43:25.101Z,13.73
2022-07-29T23:45:51.573Z,12.48
2022-07-29T23:48:20.709Z,12.65
2022-07-29T23:50:47.069Z,12.73
2022-07-29T23:53:13.501Z,13.68
2022-07-29T23:55:39.899Z,12.77
2022-07-29T23:58:06.278Z,13.38
